Time;durP1;ratioP1;P1;durP2;ratioP2;P2;SDS_P1;SDS_P2;PMS_P1;PMS_P2;Temp;Humidity;BMP_temperature;BMP_pressure;BME280_temperature;BME280_humidity;BME280_pressure;Samples;Min_cycle;Max_cycle;Signal;HPM_P1;HPM_P2
2021/09/28 08:37:02;;;;;;;8.07;2.70;;;14.30;99.90;;;;;;14948142;22;1400067;-72
2021/09/28 08:42:54;;;;;;;12.07;3.40;;;16.20;99.90;;;;;;14767798;22;20027;-70
2021/09/28 08:48:41;;;;;;;14.88;3.28;;;16.70;99.90;;;;;;14715553;23;20020;-69
2021/09/28 09:00:31;;;;;;;11.82;2.50;;;17.20;99.90;;;;;;14705847;23;20057;-71
2021/09/28 09:06:20;;;;;;;14.93;3.10;;;17.50;99.90;;;;;;14699193;23;20051;-71
2021/09/28 09:12:32;;;;;;;14.65;2.13;;;17.60;99.90;;;;;;14672898;22;20033;-71
2021/09/28 09:18:22;;;;;;;16.77;3.03;;;17.60;99.90;;;;;;14764733;22;20030;-71
2021/09/28 09:24:09;;;;;;;8.90;2.10;;;17.80;99.90;;;;;;14697501;23;20606;-70
2021/09/28 09:36:29;;;;;;;8.32;1.48;;;18.00;99.90;;;;;;14713614;23;20024;-71
2021/09/28 09:42:17;;;;;;;13.95;2.10;;;18.20;99.90;;;;;;14770065;22;20099;-70
2021/09/28 09:48:24;;;;;;;12.23;1.85;;;18.20;99.90;;;;;;14785729;23;20092;-69
2021/09/28 09:54:15;;;;;;;5.90;1.55;;;18.30;99.90;;;;;;14762927;22;20024;-70
2021/09/28 10:00:09;;;;;;;9.20;1.77;;;18.40;99.90;;;;;;14767890;22;20024;-71
2021/09/28 10:12:04;;;;;;;7.40;1.45;;;18.60;99.90;;;;;;14776290;22;20023;-71
2021/09/28 10:17:51;;;;;;;11.65;1.48;;;18.70;99.90;;;;;;14643120;22;20033;-71
2021/09/28 10:29:45;;;;;;;9.63;2.03;;;18.80;99.90;;;;;;14734192;23;20020;-71
2021/09/28 10:35:34;;;;;;;11.65;1.98;;;18.70;99.90;;;;;;14763007;22;20034;-72
2021/09/28 10:54:41;;;;;;;8.52;1.52;;;18.50;99.90;;;;;;14739628;22;20099;-72
2021/09/28 11:00:35;;;;;;;9.70;1.73;;;18.70;99.90;;;;;;14765231;22;20029;-72
2021/09/28 11:06:59;;;;;;;6.10;1.33;;;18.80;99.90;;;;;;14742769;23;20031;-71
2021/09/28 11:19:20;;;;;;;12.40;1.98;;;19.00;99.90;;;;;;14810509;22;20080;-72
2021/09/28 11:25:13;;;;;;;9.55;1.55;;;19.00;99.90;;;;;;14818656;22;20028;-71
2021/09/28 11:31:03;;;;;;;10.48;1.35;;;19.10;99.90;;;;;;14806106;22;20028;-72
2021/09/28 11:36:53;;;;;;;12.15;1.73;;;19.00;99.90;;;;;;14794086;22;20032;-71
2021/09/28 11:42:40;;;;;;;9.43;1.40;;;18.90;99.90;;;;;;14752361;23;20040;-70
2021/09/28 11:48:36;;;;;;;7.28;1.52;;;18.80;99.90;;;;;;14751724;23;20474;-70
2021/09/28 11:54:23;;;;;;;14.07;1.75;;;18.70;99.90;;;;;;14799416;22;22589;-70
2021/09/28 12:00:11;;;;;;;7.38;1.67;;;18.80;99.90;;;;;;14763268;22;20116;-72
2021/09/28 12:12:02;;;;;;;9.25;1.90;;;19.00;99.90;;;;;;14815822;22;20023;-71
2021/09/28 12:17:50;;;;;;;11.25;1.92;;;19.00;99.90;;;;;;14855520;23;20024;-70
2021/09/28 12:23:42;;;;;;;16.63;3.22;;;19.30;99.90;;;;;;14778297;22;20418;-73
2021/09/28 12:29:31;;;;;;;8.98;2.05;;;19.40;99.90;;;;;;14844445;22;20028;-71
2021/09/28 12:35:41;;;;;;;15.55;2.10;;;19.40;99.90;;;;;;14810162;22;20024;-71
2021/09/28 12:41:30;;;;;;;13.70;1.55;;;19.40;99.90;;;;;;14823999;23;20032;-71
2021/09/28 12:47:31;;;;;;;12.65;1.80;;;19.40;99.90;;;;;;14789467;23;20108;-71
2021/09/28 12:59:23;;;;;;;7.80;1.95;;;20.10;99.90;;;;;;14766207;22;20027;-71
2021/09/28 13:05:20;;;;;;;8.88;1.55;;;20.40;99.90;;;;;;14790149;23;20029;-72
2021/09/28 13:11:11;;;;;;;9.00;1.75;;;20.50;99.90;;;;;;14741462;23;20021;-70
2021/09/28 13:17:00;;;;;;;14.88;1.65;;;20.70;99.90;;;;;;14770761;22;20132;-71
2021/09/28 13:28:50;;;;;;;6.63;1.50;;;20.40;99.50;;;;;;14831997;22;20339;-70
2021/09/28 13:34:46;;;;;;;12.18;1.52;;;20.40;99.80;;;;;;14758153;22;20107;-70
2021/09/28 13:40:34;;;;;;;13.32;1.92;;;20.30;97.60;;;;;;14742538;23;20094;-70
2021/09/28 13:46:28;;;;;;;13.18;1.90;;;20.50;98.60;;;;;;14775825;23;20044;-70
2021/09/28 13:52:18;;;;;;;6.03;1.48;;;20.80;97.50;;;;;;14780958;22;20028;-70
2021/09/28 13:58:05;;;;;;;8.75;1.70;;;21.00;95.60;;;;;;14732050;23;20031;-70
2021/09/28 14:03:52;;;;;;;10.52;1.20;;;21.00;94.60;;;;;;14798546;23;20035;-70
2021/09/28 14:09:40;;;;;;;8.25;1.30;;;20.90;93.40;;;;;;14813683;22;20040;-70
2021/09/28 14:15:28;;;;;;;12.73;2.15;;;21.10;94.00;;;;;;14857735;22;20023;-70
2021/09/28 14:21:15;;;;;;;8.18;1.30;;;21.00;93.80;;;;;;14857436;22;20032;-71
2021/09/28 14:27:04;;;;;;;9.90;1.40;;;21.20;92.80;;;;;;14857300;22;20032;-70
2021/09/28 14:32:52;;;;;;;5.47;1.52;;;21.50;92.20;;;;;;14787236;22;20020;-70
2021/09/28 14:38:38;;;;;;;9.60;1.70;;;21.40;91.90;;;;;;14759633;22;20031;-70
2021/09/28 14:44:27;;;;;;;9.32;1.45;;;21.40;91.40;;;;;;14781104;23;20070;-70
2021/09/28 14:50:16;;;;;;;5.70;1.30;;;21.20;91.00;;;;;;14758616;23;20039;-70
2021/09/28 14:56:05;;;;;;;8.38;1.35;;;21.30;90.60;;;;;;14786065;23;20131;-70
2021/09/28 15:01:55;;;;;;;5.60;1.30;;;21.40;91.00;;;;;;14774618;23;20075;-70
2021/09/28 15:07:42;;;;;;;5.13;1.38;;;21.40;90.40;;;;;;14764883;23;20034;-70
2021/09/28 15:13:29;;;;;;;7.65;1.02;;;21.30;90.60;;;;;;14789389;23;20052;-70
2021/09/28 15:19:21;;;;;;;6.57;1.52;;;21.20;91.00;;;;;;14748805;23;20035;-70
2021/09/28 15:25:09;;;;;;;6.00;1.38;;;21.20;89.80;;;;;;14753222;23;20510;-71
2021/09/28 15:30:56;;;;;;;8.93;2.97;;;21.30;89.70;;;;;;14793948;22;20020;-71
2021/09/28 15:36:44;;;;;;;16.48;4.40;;;21.10;90.10;;;;;;14797364;22;20078;-71
2021/09/28 15:42:31;;;;;;;7.63;1.30;;;21.10;90.20;;;;;;14846146;22;20039;-71
2021/09/28 15:48:19;;;;;;;7.97;1.30;;;20.70;90.30;;;;;;14851628;22;20083;-71
2021/09/28 15:54:07;;;;;;;11.20;1.70;;;20.70;91.70;;;;;;14783039;23;20025;-70
2021/09/28 15:59:54;;;;;;;5.35;1.17;;;20.50;92.70;;;;;;14784424;23;20384;-71
2021/09/28 16:05:48;;;;;;;21.58;11.55;;;20.50;93.10;;;;;;14782379;23;20052;-71
2021/09/28 16:11:37;;;;;;;7.30;1.60;;;20.50;94.20;;;;;;14782364;22;20024;-71
2021/09/28 16:17:24;;;;;;;6.72;1.60;;;20.70;93.30;;;;;;14777478;23;20024;-71
2021/09/28 16:23:11;;;;;;;7.80;1.50;;;21.00;91.80;;;;;;14847584;22;20088;-71
2021/09/28 16:29:00;;;;;;;7.00;1.15;;;21.30;91.70;;;;;;14817768;22;20481;-72
2021/09/28 16:34:46;;;;;;;9.25;1.83;;;21.40;90.70;;;;;;14789010;22;20120;-70
2021/09/28 16:40:33;;;;;;;8.98;1.15;;;21.40;90.00;;;;;;14786526;23;20024;-70
2021/09/28 16:46:24;;;;;;;5.15;1.35;;;21.10;89.30;;;;;;14734390;23;20162;-70
2021/09/28 16:52:18;;;;;;;10.65;1.85;;;20.90;90.50;;;;;;14763846;22;20036;-71
2021/09/28 16:58:05;;;;;;;7.22;1.35;;;20.70;90.80;;;;;;14753653;23;20078;-71
2021/09/28 17:03:53;;;;;;;6.38;1.70;;;20.50;90.80;;;;;;14800290;23;20031;-71
2021/09/28 17:09:40;;;;;;;9.18;1.85;;;20.20;92.50;;;;;;14813402;22;20403;-71
2021/09/28 17:15:28;;;;;;;4.72;1.65;;;20.10;93.20;;;;;;14745350;23;20027;-71
2021/09/28 17:21:16;;;;;;;13.02;1.55;;;19.80;93.80;;;;;;14856066;22;20362;-70
2021/09/28 17:27:04;;;;;;;12.02;1.95;;;19.50;95.90;;;;;;14823494;22;20086;-70
2021/09/28 17:32:51;;;;;;;7.65;1.83;;;19.30;97.90;;;;;;14860404;22;20474;-72
2021/09/28 17:38:49;;;;;;;9.02;1.30;;;19.00;99.50;;;;;;14731510;22;20603;-66
2021/09/28 17:44:38;;;;;;;5.03;1.92;;;18.70;99.90;;;;;;14727908;22;20110;-66
2021/09/28 17:50:27;;;;;;;10.57;1.80;;;18.60;99.90;;;;;;14783094;23;20078;-67
2021/09/28 17:56:21;;;;;;;13.18;2.25;;;18.50;99.90;;;;;;14753043;22;20433;-63
2021/09/28 18:02:09;;;;;;;5.22;1.50;;;18.40;99.90;;;;;;14775645;23;20495;-67
2021/09/28 18:08:03;;;;;;;10.73;1.92;;;18.30;99.90;;;;;;14760785;22;20033;-65
2021/09/28 18:14:39;;;;;;;9.48;1.90;;;18.10;99.90;;;;;;14801715;23;20027;-67
2021/09/28 18:20:37;;;;;;;9.55;1.55;;;18.00;99.90;;;;;;14774906;23;20047;-68
2021/09/28 18:26:24;;;;;;;10.00;1.90;;;17.90;99.90;;;;;;14780729;22;20421;-65
2021/09/28 18:32:16;;;;;;;12.43;2.08;;;17.90;99.90;;;;;;14782388;22;20029;-67
2021/09/28 18:38:08;;;;;;;13.52;2.65;;;17.80;99.90;;;;;;14752928;23;20103;-67
2021/09/28 18:44:07;;;;;;;10.00;2.35;;;17.70;99.90;;;;;;14752344;23;20213;-67
2021/09/28 18:49:54;;;;;;;14.18;3.25;;;17.70;99.90;;;;;;14736979;23;20030;-67
2021/09/28 18:55:54;;;;;;;11.70;2.80;;;17.70;99.90;;;;;;14768499;23;20029;-67
2021/09/28 19:01:45;;;;;;;11.63;2.15;;;17.70;99.90;;;;;;14751397;22;20024;-66
2021/09/28 19:07:38;;;;;;;13.57;2.13;;;17.70;99.90;;;;;;14756479;23;20030;-66
2021/09/28 19:13:28;;;;;;;9.95;2.40;;;17.60;99.90;;;;;;14768144;23;21386;-66
2021/09/28 19:19:20;;;;;;;8.90;1.73;;;17.50;99.90;;;;;;14757481;23;20442;-66
2021/09/28 19:25:11;;;;;;;23.70;2.73;;;17.50;99.90;;;;;;14750928;23;20036;-67
2021/09/28 19:31:00;;;;;;;12.23;2.95;;;17.50;99.90;;;;;;14790635;22;20021;-66
2021/09/28 19:36:47;;;;;;;9.93;2.10;;;17.50;99.90;;;;;;14766477;22;20023;-66
2021/09/28 19:42:36;;;;;;;13.32;5.68;;;17.50;99.90;;;;;;14811038;23;20415;-66
2021/09/28 19:48:26;;;;;;;7.25;2.20;;;17.50;99.90;;;;;;14821104;22;21873;-66
2021/09/28 19:54:16;;;;;;;9.82;2.15;;;17.50;99.90;;;;;;14852958;22;20026;-66
2021/09/28 20:00:29;;;;;;;9.13;2.53;;;17.50;99.90;;;;;;14815190;22;20071;-65
2021/09/28 20:36:59;;;;;;;11.30;2.50;;;17.40;99.90;;;;;;14735915;23;20405;-67
2021/09/28 20:48:51;;;;;;;7.60;1.77;;;17.40;99.90;;;;;;14808541;22;20012;-67
